地図

経路データ

SID SEASON NUMBER BASIN SUBBASIN NAME ISO_TIME NATURE LAT LON WMO_WIND WMO_PRES WMO_AGENCY TRACK_TYPE DIST2LAND LANDFALL IFLAG USA_AGENCY USA_ATCF_ID USA_LAT USA_LON USA_RECORD USA_STATUS USA_WIND USA_PRES USA_SSHS USA_R34_NE USA_R34_SE USA_R34_SW USA_R34_NW USA_R50_NE USA_R50_SE USA_R50_SW USA_R50_NW USA_R64_NE USA_R64_SE USA_R64_SW USA_R64_NW USA_POCI USA_ROCI USA_RMW USA_EYE TOKYO_LAT TOKYO_LON TOKYO_GRADE TOKYO_WIND TOKYO_PRES TOKYO_R50_DIR TOKYO_R50_LONG TOKYO_R50_SHORT TOKYO_R30_DIR TOKYO_R30_LONG TOKYO_R30_SHORT TOKYO_LAND CMA_LAT CMA_LON CMA_CAT CMA_WIND CMA_PRES HKO_LAT HKO_LON HKO_CAT HKO_WIND HKO_PRES NEWDELHI_LAT NEWDELHI_LON NEWDELHI_GRADE NEWDELHI_WIND NEWDELHI_PRES NEWDELHI_CI NEWDELHI_DP NEWDELHI_POCI REUNION_LAT REUNION_LON REUNION_TYPE REUNION_WIND REUNION_PRES REUNION_TNUM REUNION_CI REUNION_RMW REUNION_R34_NE REUNION_R34_SE REUNION_R34_SW REUNION_R34_NW REUNION_R50_NE REUNION_R50_SE REUNION_R50_SW REUNION_R50_NW REUNION_R64_NE REUNION_R64_SE REUNION_R64_SW REUNION_R64_NW BOM_LAT BOM_LON BOM_TYPE BOM_WIND BOM_PRES BOM_TNUM BOM_CI BOM_RMW BOM_R34_NE BOM_R34_SE BOM_R34_SW BOM_R34_NW BOM_R50_NE BOM_R50_SE BOM_R50_SW BOM_R50_NW BOM_R64_NE BOM_R64_SE BOM_R64_SW BOM_R64_NW BOM_ROCI BOM_POCI BOM_EYE BOM_POS_METHOD BOM_PRES_METHOD NADI_LAT NADI_LON NADI_CAT NADI_WIND NADI_PRES WELLINGTON_LAT WELLINGTON_LON WELLINGTON_WIND WELLINGTON_PRES DS824_LAT DS824_LON DS824_STAGE DS824_WIND DS824_PRES TD9636_LAT TD9636_LON TD9636_STAGE TD9636_WIND TD9636_PRES TD9635_LAT TD9635_LON TD9635_WIND TD9635_PRES TD9635_ROCI NEUMANN_LAT NEUMANN_LON NEUMANN_CLASS NEUMANN_WIND NEUMANN_PRES MLC_LAT MLC_LON MLC_CLASS MLC_WIND MLC_PRES USA_GUST BOM_GUST BOM_GUST_PER REUNION_GUST REUNION_GUST_PER USA_SEAHGT USA_SEARAD_NE USA_SEARAD_SE USA_SEARAD_SW USA_SEARAD_NW STORM_SPEED STORM_DIR
1899144N15116 1899 13 WP MM NOT_NAMED 1899-05-24 04:00:00 NR 14.7000 116.100 main 412 398 __________O___ -1 14.7000 116.100 3 12 7
1899144N15116 1899 13 WP MM NOT_NAMED 1899-05-24 06:00:00 NR 15.0931 116.135 main 398 376 __________P___ -1 15.0931 116.135 3 12 5
1899144N15116 1899 13 WP MM NOT_NAMED 1899-05-24 09:00:00 NR 15.6791 116.188 main 376 374 __________P___ -1 15.6791 116.188 3 12 5
1899144N15116 1899 13 WP MM NOT_NAMED 1899-05-24 12:00:00 NR 16.2557 116.238 main 375 365 __________P___ -1 16.2557 116.238 3 12 5
1899144N15116 1899 13 WP MM NOT_NAMED 1899-05-24 15:00:00 NR 16.8172 116.285 main 373 373 __________P___ -1 16.8172 116.285 3 11 4
1899144N15116 1899 13 WP MM NOT_NAMED 1899-05-24 16:00:00 NR 17.0000 116.300 main 379 379 __________O___ -1 17.0000 116.300 4 11 4
1899144N15116 1899 13 WP MM NOT_NAMED 1899-05-24 18:00:00 NR 17.3583 116.328 main 392 389 __________P___ -1 17.3583 116.328 4 11 4
1899144N15116 1899 13 WP MM NOT_NAMED 1899-05-24 21:00:00 NR 17.8770 116.370 main 403 403 __________P___ -1 17.8770 116.370 4 10 5
1899144N15116 1899 13 WP MM NOT_NAMED 1899-05-25 00:00:00 NR 18.3732 116.418 main 422 419 __________P___ -1 18.3732 116.418 4 10 6
1899144N15116 1899 13 WP MM NOT_NAMED 1899-05-25 03:00:00 NR 18.8471 116.477 main 423 420 __________P___ -1 18.8471 116.477 4 10 7
1899144N15116 1899 13 WP MM NOT_NAMED 1899-05-25 04:00:00 NR 19.0000 116.500 main 420 387 __________O___ -1 19.0000 116.500 4 9 8
1899144N15116 1899 13 WP MM NOT_NAMED 1899-05-25 06:00:00 NR 19.2952 116.548 main 387 345 __________P___ -1 19.2952 116.548 4 9 10
1899144N15116 1899 13 WP MM NOT_NAMED 1899-05-25 09:00:00 NR 19.7189 116.631 main 345 305 __________P___ -1 19.7189 116.631 4 9 12
1899144N15116 1899 13 WP MM NOT_NAMED 1899-05-25 12:00:00 NR 20.1337 116.733 main 305 259 __________P___ -1 20.1337 116.733 4 9 14
1899144N15116 1899 13 WP MM NOT_NAMED 1899-05-25 15:00:00 NR 20.5553 116.854 main 259 248 __________P___ -1 20.5553 116.854 4 9 16
1899144N15116 1899 13 WP MM NOT_NAMED 1899-05-25 16:00:00 NR 20.7000 116.900 main 248 218 __________O___ -1 20.7000 116.900 4 9 12
1899144N15116 1899 13 WP MM NOT_NAMED 1899-05-25 18:00:00 NR 20.9996 116.961 main 218 168 __________P___ -1 20.9996 116.961 4 9 12
1899144N15116 1899 13 WP MM NOT_NAMED 1899-05-25 21:00:00 NR 21.4615 117.071 main 168 132 __________P___ -1 21.4615 117.071 4 10 15
1899144N15116 1899 13 WP MM NOT_NAMED 1899-05-26 00:00:00 NR 21.9388 117.234 main 132 113 __________P___ -1 21.9388 117.234 4 11 22
1899144N15116 1899 13 WP MM NOT_NAMED 1899-05-26 03:00:00 NR 22.4320 117.489 main 116 111 __________P___ -1 22.4320 117.489 4 11 27
1899144N15116 1899 13 WP MM NOT_NAMED 1899-05-26 04:00:00 NR 22.6000 117.600 main 112 84 __________O___ -1 22.6000 117.600 4 13 34
1899144N15116 1899 13 WP MM NOT_NAMED 1899-05-26 06:00:00 NR 22.9519 117.867 main 84 67 __________P___ -1 22.9519 117.867 4 14 38
1899144N15116 1899 13 WP MM NOT_NAMED 1899-05-26 09:00:00 NR 23.4924 118.363 main 75 63 __________P___ -1 23.4924 118.363 4 15 43
1899144N15116 1899 13 WP MM NOT_NAMED 1899-05-26 12:00:00 NR 24.0287 118.945 main 63 60 __________P___ -1 24.0287 118.945 4 15 47
1899144N15116 1899 13 WP MM NOT_NAMED 1899-05-26 15:00:00 NR 24.5392 119.581 main 78 68 __________P___ -1 24.5392 119.581 4 15 49
1899144N15116 1899 13 WP MM NOT_NAMED 1899-05-26 16:00:00 NR 24.7000 119.800 main 70 60 __________O___ -1 24.7000 119.800 4 15 49
1899144N15116 1899 13 WP MM NOT_NAMED 1899-05-26 18:00:00 NR 25.0177 120.196 main 67 49 __________P___ -1 25.0177 120.196 4 14 50
1899144N15116 1899 13 WP MM NOT_NAMED 1899-05-26 21:00:00 NR 25.4636 120.820 main 59 53 __________P___ -1 25.4636 120.820 4 14 54
1899144N15116 1899 13 WP MM NOT_NAMED 1899-05-27 00:00:00 NR 25.8623 121.494 main 78 78 __________P___ -1 25.8623 121.494 4 15 60
1899144N15116 1899 13 WP MM NOT_NAMED 1899-05-27 03:00:00 NR 26.2020 122.236 main 126 131 __________P___ -1 26.2020 122.236 4 15 64
1899144N15116 1899 13 WP MM NOT_NAMED 1899-05-27 04:00:00 NR 26.3000 122.500 main 152 152 __________O___ -1 26.3000 122.500 4 16 69
1899144N15116 1899 13 WP MM NOT_NAMED 1899-05-27 06:00:00 NR 26.4813 123.060 main 200 200 __________P___ -1 26.4813 123.060 4 16 73
1899144N15116 1899 13 WP MM NOT_NAMED 1899-05-27 09:00:00 NR 26.6967 123.963 main 275 275 __________P___ -1 26.6967 123.963 4 17 77
1899144N15116 1899 13 WP MM NOT_NAMED 1899-05-27 12:00:00 NR 26.8550 124.913 main 359 367 __________P___ -1 26.8550 124.913 4 17 81
1899144N15116 1899 13 WP MM NOT_NAMED 1899-05-27 15:00:00 NR 26.9693 125.880 main 447 447 __________P___ -1 26.9693 125.880 4 17 83
1899144N15116 1899 13 WP MM NOT_NAMED 1899-05-27 16:00:00 NR 27.0000 126.200 main 475 475 __________O___ -1 27.0000 126.200 4 17 84
1899144N15116 1899 13 WP MM NOT_NAMED 1899-05-27 18:00:00 NR 27.0529 126.833 main 525 513 __________P___ -1 27.0529 126.833 4 17 85
1899144N15116 1899 13 WP MM NOT_NAMED 1899-05-27 21:00:00 NR 27.1144 127.767 main 513 466 __________P___ -1 27.1144 127.767 4 17 86
1899144N15116 1899 13 WP MM NOT_NAMED 1899-05-28 00:00:00 NR 27.1588 128.686 main 466 437 __________P___ -1 27.1588 128.686 4 16 87
1899144N15116 1899 13 WP MM NOT_NAMED 1899-05-28 03:00:00 NR 27.1911 129.597 main 437 433 __________P___ -1 27.1911 129.597 4 16 88
1899144N15116 1899 13 WP MM NOT_NAMED 1899-05-28 04:00:00 NR 27.2000 129.900 main 431 __________O___ -1 27.2000 129.900 7 16 88

デジタル台風データ・検索

IBTrACS Databaseについて

本データベースは、米国NOAAが公開する1842年以降の世界の熱帯低気圧のベストトラックデータアーカイブInternational Best Track Archive for Climate Stewardship (IBTrACS)を、ウェブで閲覧しやすい形式に変換したものです。

最終更新日:2021-12-03